Alberton, Canada
Current Conditions -  °F | °C
As of 7:00 PM on Thursday 18 Dec 2014 (Local Time) from CYQM Reporting Station
Light Snow Light Snow  
Wind Chill: 24°   Ceiling: 300
Heat Index: 32°   Visibility: 1.5mi
Dew Point: 30°   Wind: 9mph
Humidity: 93%   Direction: 200°SSW
Pressure: 29.32"   Gusts: NA
Location:  46.8°N, 64.07°W
Report Text: CYQM 182300Z 20008KT 1 1/2SM -SN OVC003 M00/M01 A2932 RMK SF8 SLP933
Loading
Personal Weather Stations






























Interactive Weather Map New forecast layout! Learn more

10-Day Weather Forecast

Advertisements
Track Severe Weather on mobile